Time;durP1;ratioP1;P1;durP2;ratioP2;P2;SDS_P1;SDS_P2;PMS_P1;PMS_P2;Temp;Humidity;BMP_temperature;BMP_pressure;BME280_temperature;BME280_humidity;BME280_pressure;Samples;Min_cycle;Max_cycle;Signal;HPM_P1;HPM_P2
2023/09/08 00:02:26;;;;;;;14.57;12.98;;;18.60;99.90;;;;;;5112801;28;20055;-75
2023/09/08 00:04:52;;;;;;;13.65;12.05;;;18.60;99.90;;;;;;5122239;27;20079;-75
2023/09/08 00:07:17;;;;;;;13.88;11.75;;;18.50;99.90;;;;;;5116970;28;20527;-74
2023/09/08 00:09:43;;;;;;;14.55;12.25;;;18.40;99.90;;;;;;5128574;27;20051;-75
2023/09/08 00:12:09;;;;;;;13.93;12.52;;;18.40;99.90;;;;;;5106935;28;20047;-74
2023/09/08 00:14:34;;;;;;;16.42;13.82;;;18.30;99.90;;;;;;5123456;27;20034;-75
2023/09/08 00:17:00;;;;;;;16.90;12.82;;;18.30;99.90;;;;;;5139938;27;20467;-75
2023/09/08 00:19:26;;;;;;;15.05;13.55;;;18.20;99.90;;;;;;5139184;27;20042;-75
2023/09/08 00:21:51;;;;;;;12.77;11.52;;;18.20;99.90;;;;;;5125320;27;20038;-75
2023/09/08 00:24:18;;;;;;;14.13;12.63;;;18.20;99.90;;;;;;5131221;27;20104;-75
2023/09/08 00:26:44;;;;;;;13.02;11.77;;;18.20;99.90;;;;;;5139115;27;20053;-75
2023/09/08 00:29:10;;;;;;;13.15;11.77;;;18.10;99.90;;;;;;5124351;27;20787;-75
2023/09/08 00:31:36;;;;;;;13.85;12.40;;;18.10;99.90;;;;;;5120936;27;20191;-75
2023/09/08 00:34:01;;;;;;;13.40;12.07;;;18.10;99.90;;;;;;5142560;27;20050;-75
2023/09/08 00:36:27;;;;;;;14.70;12.30;;;18.00;99.90;;;;;;5138073;27;20045;-75
2023/09/08 00:38:52;;;;;;;14.38;12.98;;;18.00;99.90;;;;;;5107771;28;20051;-74
2023/09/08 00:41:18;;;;;;;15.30;13.57;;;17.90;99.90;;;;;;5122047;27;20047;-75
2023/09/08 00:43:44;;;;;;;15.35;13.73;;;17.90;99.90;;;;;;5123104;27;20054;-74
2023/09/08 00:46:10;;;;;;;15.07;13.48;;;17.80;99.90;;;;;;5115287;27;20090;-75
2023/09/08 00:48:37;;;;;;;13.95;12.52;;;17.80;99.90;;;;;;5126681;27;20042;-75
2023/09/08 00:51:05;;;;;;;17.83;14.45;;;17.80;99.90;;;;;;5111607;28;20055;-75
2023/09/08 00:53:31;;;;;;;17.73;14.10;;;17.70;99.90;;;;;;5116689;28;20123;-75
2023/09/08 00:55:58;;;;;;;15.50;14.05;;;17.70;99.90;;;;;;5133613;27;20051;-75
2023/09/08 00:58:24;;;;;;;14.38;12.85;;;17.70;99.90;;;;;;5123341;27;20122;-76
2023/09/08 01:00:50;;;;;;;15.52;13.55;;;17.70;99.90;;;;;;5131967;27;20042;-75
2023/09/08 01:03:15;;;;;;;18.00;14.80;;;17.60;99.90;;;;;;5139327;27;20141;-75
2023/09/08 01:05:41;;;;;;;18.58;15.45;;;17.60;99.90;;;;;;5141340;27;20050;-74
2023/09/08 01:08:08;;;;;;;19.15;16.30;;;17.60;99.90;;;;;;5143575;27;20045;-75
2023/09/08 01:10:34;;;;;;;18.63;16.17;;;17.60;99.90;;;;;;5145578;27;20133;-75
2023/09/08 01:13:00;;;;;;;19.15;17.25;;;17.60;99.90;;;;;;5106346;27;20051;-75
2023/09/08 01:15:26;;;;;;;19.25;16.73;;;17.60;99.90;;;;;;5124381;27;20047;-75
2023/09/08 01:17:51;;;;;;;17.60;15.15;;;17.50;99.90;;;;;;5121016;27;20557;-74
2023/09/08 01:20:27;;;;;;;20.58;16.00;;;17.50;99.90;;;;;;5144551;27;20050;-75
2023/09/08 01:23:18;;;;;;;18.67;16.77;;;17.40;99.90;;;;;;5142691;27;20766;-74
2023/09/08 01:25:58;;;;;;;19.55;16.58;;;17.40;99.90;;;;;;5122616;27;20359;-75
2023/09/08 01:28:24;;;;;;;17.40;15.55;;;17.40;99.90;;;;;;5143933;27;20051;-74
2023/09/08 01:30:51;;;;;;;17.75;15.70;;;17.40;99.90;;;;;;5121853;27;20638;-74
2023/09/08 01:33:17;;;;;;;17.48;15.13;;;17.40;99.90;;;;;;5144283;27;20090;-74
2023/09/08 01:35:43;;;;;;;18.73;14.73;;;17.40;99.90;;;;;;5141849;27;20050;-74
2023/09/08 01:38:09;;;;;;;16.23;14.63;;;17.40;99.90;;;;;;5125290;27;20069;-75
2023/09/08 01:40:35;;;;;;;20.13;15.10;;;17.40;99.90;;;;;;5138199;27;20486;-75
2023/09/08 01:43:01;;;;;;;18.60;15.63;;;17.40;99.90;;;;;;5144088;27;20126;-75
2023/09/08 01:45:26;;;;;;;19.27;15.57;;;17.30;99.90;;;;;;5141483;27;20042;-74
2023/09/08 01:47:52;;;;;;;14.63;13.13;;;17.30;99.90;;;;;;5140240;27;20043;-75
2023/09/08 01:50:22;;;;;;;17.50;14.80;;;17.30;99.90;;;;;;5141285;27;20163;-75
2023/09/08 01:52:48;;;;;;;14.02;12.63;;;17.30;99.90;;;;;;5143326;27;20051;-75
2023/09/08 01:55:15;;;;;;;15.68;13.95;;;17.20;99.90;;;;;;5142467;27;20501;-75
2023/09/08 01:57:40;;;;;;;14.93;12.48;;;17.20;99.90;;;;;;5123610;27;20715;-75
2023/09/08 02:00:06;;;;;;;15.48;13.88;;;17.20;99.90;;;;;;5143233;27;20046;-75
2023/09/08 02:02:32;;;;;;;13.90;12.50;;;17.20;99.90;;;;;;5124868;27;20054;-75
2023/09/08 02:04:58;;;;;;;14.23;12.77;;;17.20;99.90;;;;;;5143217;27;20054;-75
2023/09/08 02:07:23;;;;;;;15.77;11.90;;;17.20;99.90;;;;;;5121366;27;20059;-75
2023/09/08 02:09:49;;;;;;;13.45;12.15;;;17.20;99.90;;;;;;5117283;27;20467;-75
2023/09/08 02:12:15;;;;;;;14.02;12.52;;;17.20;99.90;;;;;;5134177;27;20054;-75
2023/09/08 02:14:40;;;;;;;13.68;11.80;;;17.20;99.90;;;;;;5134611;27;20221;-75
2023/09/08 02:17:06;;;;;;;14.88;13.07;;;17.20;99.90;;;;;;5104446;27;20050;-75
2023/09/08 02:19:32;;;;;;;13.93;12.52;;;17.20;99.90;;;;;;5127199;27;20041;-75
2023/09/08 02:21:57;;;;;;;16.67;12.98;;;17.20;99.90;;;;;;5139340;27;20050;-75
2023/09/08 02:24:23;;;;;;;14.10;12.70;;;17.10;99.90;;;;;;5127389;27;20043;-75
2023/09/08 02:26:49;;;;;;;14.82;12.40;;;17.10;99.90;;;;;;5103949;27;20103;-75
2023/09/08 02:29:15;;;;;;;12.85;11.50;;;17.10;99.90;;;;;;5110346;27;20108;-75
2023/09/08 02:31:41;;;;;;;16.58;14.85;;;17.10;99.90;;;;;;5140574;27;20848;-75
2023/09/08 02:34:06;;;;;;;15.23;13.70;;;17.00;99.90;;;;;;5131250;27;20054;-75
2023/09/08 02:36:32;;;;;;;16.25;13.90;;;17.00;99.90;;;;;;5140754;27;20050;-75
2023/09/08 02:38:58;;;;;;;15.23;13.38;;;16.90;99.90;;;;;;5119035;27;20089;-75
2023/09/08 02:41:23;;;;;;;16.98;13.40;;;16.90;99.90;;;;;;5119543;27;20052;-75
2023/09/08 02:43:49;;;;;;;16.90;13.30;;;16.80;99.90;;;;;;5121342;27;20122;-75
2023/09/08 02:46:15;;;;;;;14.43;12.95;;;16.80;99.90;;;;;;5124821;27;20141;-76
2023/09/08 02:48:41;;;;;;;14.40;12.00;;;16.80;99.90;;;;;;5140708;27;20163;-75
2023/09/08 02:51:07;;;;;;;14.15;12.32;;;16.70;99.90;;;;;;5123877;27;20049;-75
2023/09/08 02:53:33;;;;;;;14.93;13.27;;;16.70;99.90;;;;;;5113542;27;20059;-75
2023/09/08 02:55:59;;;;;;;15.98;13.55;;;16.70;99.90;;;;;;5121268;27;20852;-75
2023/09/08 02:58:25;;;;;;;17.00;12.93;;;16.70;99.90;;;;;;5131746;27;20131;-75
2023/09/08 03:00:51;;;;;;;15.50;13.43;;;16.60;99.90;;;;;;5135087;27;20039;-75
2023/09/08 03:03:20;;;;;;;14.27;11.85;;;16.60;99.90;;;;;;5104600;27;20115;-75
2023/09/08 03:05:46;;;;;;;15.23;13.55;;;16.60;99.90;;;;;;5104539;27;20046;-76
2023/09/08 03:08:12;;;;;;;14.02;12.52;;;16.50;99.90;;;;;;5110145;27;20615;-75
2023/09/08 03:10:37;;;;;;;15.40;13.90;;;16.50;99.90;;;;;;5117229;27;20054;-74
2023/09/08 03:13:04;;;;;;;15.32;13.75;;;16.40;99.90;;;;;;5121566;27;20585;-74
2023/09/08 03:15:30;;;;;;;13.80;12.23;;;16.40;99.90;;;;;;5103718;27;20047;-75
2023/09/08 03:17:58;;;;;;;21.13;14.38;;;16.50;99.90;;;;;;5118342;27;20115;-75
2023/09/08 03:20:25;;;;;;;14.88;12.85;;;16.40;99.90;;;;;;5119614;27;20093;-75
2023/09/08 03:22:54;;;;;;;12.95;11.75;;;16.40;99.90;;;;;;5117139;27;20414;-74
2023/09/08 03:25:21;;;;;;;15.60;13.57;;;16.30;99.90;;;;;;5116731;27;20671;-75
2023/09/08 03:27:46;;;;;;;16.25;13.63;;;16.30;99.90;;;;;;5137576;27;20039;-75
2023/09/08 03:30:12;;;;;;;15.63;13.35;;;16.30;99.90;;;;;;5127894;27;20388;-75
2023/09/08 03:32:38;;;;;;;17.00;13.20;;;16.30;99.90;;;;;;5131081;27;20054;-74
2023/09/08 03:35:07;;;;;;;13.88;12.48;;;16.30;99.90;;;;;;5138257;27;20580;-75
2023/09/08 03:37:36;;;;;;;18.10;12.43;;;16.30;99.90;;;;;;5142606;27;20049;-75
2023/09/08 03:40:05;;;;;;;16.15;13.48;;;16.20;99.90;;;;;;5119058;27;20951;-75
2023/09/08 03:42:31;;;;;;;18.33;13.02;;;16.20;99.90;;;;;;5134244;27;20051;-75
2023/09/08 03:44:56;;;;;;;15.68;12.02;;;16.20;99.90;;;;;;5122603;27;20077;-75
2023/09/08 03:47:22;;;;;;;14.23;12.65;;;16.20;99.90;;;;;;5116497;27;20074;-76
2023/09/08 03:49:48;;;;;;;14.13;12.65;;;16.10;99.90;;;;;;5115771;27;20103;-75
2023/09/08 03:52:13;;;;;;;16.33;12.48;;;16.10;99.90;;;;;;5135154;27;20170;-75
2023/09/08 03:54:39;;;;;;;13.70;12.30;;;16.10;99.90;;;;;;5135193;27;20043;-75
2023/09/08 03:57:05;;;;;;;11.95;10.75;;;16.10;99.90;;;;;;5134944;27;20042;-75
2023/09/08 03:59:30;;;;;;;12.55;11.35;;;16.10;99.90;;;;;;5102625;28;20515;-75
2023/09/08 04:01:56;;;;;;;12.88;11.40;;;16.00;99.90;;;;;;5121982;27;20192;-75
2023/09/08 04:04:22;;;;;;;14.25;12.70;;;16.00;99.90;;;;;;5141082;27;20117;-75
2023/09/08 04:06:47;;;;;;;12.52;11.43;;;15.90;99.90;;;;;;5141900;27;20486;-75
2023/09/08 04:09:13;;;;;;;13.80;12.40;;;15.80;99.90;;;;;;5128031;27;20047;-74
2023/09/08 04:11:39;;;;;;;12.10;9.98;;;15.90;99.90;;;;;;5128050;27;20833;-74
2023/09/08 04:14:04;;;;;;;12.73;10.77;;;15.80;99.90;;;;;;5121135;27;20046;-74
2023/09/08 04:16:30;;;;;;;14.05;12.63;;;15.80;99.90;;;;;;5121892;27;20050;-75
2023/09/08 04:18:56;;;;;;;14.10;12.65;;;15.80;99.90;;;;;;5140790;27;20122;-75
2023/09/08 04:21:22;;;;;;;12.18;10.60;;;15.80;99.90;;;;;;5141891;27;20052;-75
2023/09/08 04:23:47;;;;;;;12.98;11.60;;;15.70;99.90;;;;;;5140514;27;20050;-75
2023/09/08 04:26:13;;;;;;;15.00;12.55;;;15.70;99.90;;;;;;5103161;28;20055;-74
2023/09/08 04:28:39;;;;;;;15.18;11.90;;;15.70;99.90;;;;;;5135683;27;20047;-74
2023/09/08 04:31:04;;;;;;;11.70;10.50;;;15.60;99.90;;;;;;5122924;27;20062;-74
2023/09/08 04:33:30;;;;;;;13.52;11.30;;;15.60;99.90;;;;;;5139039;27;20055;-75
2023/09/08 04:35:56;;;;;;;13.35;11.98;;;15.60;99.90;;;;;;5141704;27;20099;-75
2023/09/08 04:38:22;;;;;;;11.73;10.60;;;15.60;99.90;;;;;;5138710;27;20039;-75
2023/09/08 04:40:47;;;;;;;12.98;11.70;;;15.60;99.90;;;;;;5138149;27;20054;-75
2023/09/08 04:43:13;;;;;;;14.43;11.45;;;15.50;99.90;;;;;;5129207;27;20774;-75
2023/09/08 04:45:39;;;;;;;13.95;11.27;;;15.50;99.90;;;;;;5136132;27;20053;-75
2023/09/08 04:48:05;;;;;;;12.00;10.73;;;15.50;99.90;;;;;;5140554;27;20207;-74
2023/09/08 04:50:31;;;;;;;15.40;12.43;;;15.50;99.90;;;;;;5138582;27;20042;-75
2023/09/08 04:52:56;;;;;;;14.35;11.88;;;15.50;99.90;;;;;;5122042;27;20526;-75
2023/09/08 04:55:22;;;;;;;16.40;12.18;;;15.60;99.90;;;;;;5138402;27;20042;-75
2023/09/08 04:57:48;;;;;;;13.48;12.10;;;15.60;99.90;;;;;;5130137;27;20046;-75
2023/09/08 05:00:14;;;;;;;13.35;11.85;;;15.50;99.90;;;;;;5138963;27;20058;-75
2023/09/08 05:02:39;;;;;;;15.25;11.98;;;15.50;99.90;;;;;;5126126;27;20050;-75
2023/09/08 05:05:05;;;;;;;14.52;12.07;;;15.50;99.90;;;;;;5135704;27;20043;-75
2023/09/08 05:07:31;;;;;;;15.73;12.73;;;15.50;99.90;;;;;;5135193;27;20054;-75
2023/09/08 05:09:57;;;;;;;12.55;11.30;;;15.50;99.90;;;;;;5117407;27;20644;-75
2023/09/08 05:12:22;;;;;;;13.98;11.02;;;15.50;99.90;;;;;;5114393;27;20051;-75
2023/09/08 05:14:48;;;;;;;12.90;11.45;;;15.50;99.90;;;;;;5146727;27;20126;-75
2023/09/08 05:17:14;;;;;;;14.27;10.75;;;15.50;99.90;;;;;;5128659;27;20073;-75
2023/09/08 05:19:39;;;;;;;13.68;11.07;;;15.50;99.90;;;;;;5146973;27;20117;-75
2023/09/08 05:22:07;;;;;;;14.10;11.70;;;15.40;99.90;;;;;;5127026;27;20047;-75
2023/09/08 05:24:32;;;;;;;14.52;11.18;;;15.40;99.90;;;;;;5106115;27;20062;-75
2023/09/08 05:26:58;;;;;;;14.23;11.88;;;15.40;99.90;;;;;;5138419;27;20042;-75
2023/09/08 05:29:24;;;;;;;16.13;12.82;;;15.40;99.90;;;;;;5125961;27;20054;-75
2023/09/08 05:31:49;;;;;;;16.35;13.23;;;15.30;99.90;;;;;;5143564;27;20388;-75
2023/09/08 05:34:15;;;;;;;17.77;13.93;;;15.30;99.90;;;;;;5124418;27;20066;-75
2023/09/08 05:36:42;;;;;;;14.80;12.27;;;15.40;99.90;;;;;;5132010;27;20049;-75
2023/09/08 05:39:08;;;;;;;15.98;11.30;;;15.40;99.90;;;;;;5143258;27;20051;-75
2023/09/08 05:41:33;;;;;;;16.17;13.13;;;15.40;99.90;;;;;;5143170;27;20047;-75
2023/09/08 05:44:00;;;;;;;15.15;13.23;;;15.40;99.90;;;;;;5142541;27;20042;-74
2023/09/08 05:46:25;;;;;;;13.80;12.27;;;15.40;99.90;;;;;;5121659;27;20039;-76
2023/09/08 05:48:51;;;;;;;16.80;12.65;;;15.50;99.90;;;;;;5124007;27;20103;-75
2023/09/08 05:51:17;;;;;;;18.73;13.27;;;15.50;99.90;;;;;;5142059;27;20054;-75
2023/09/08 05:53:43;;;;;;;17.00;13.15;;;15.60;99.90;;;;;;5126099;27;20050;-76
2023/09/08 05:56:09;;;;;;;15.20;13.52;;;15.60;99.90;;;;;;5140132;27;20050;-74
2023/09/08 05:58:35;;;;;;;15.82;12.60;;;15.70;99.90;;;;;;5141570;27;20461;-75
2023/09/08 06:01:02;;;;;;;15.50;13.85;;;15.70;99.90;;;;;;5121915;27;20479;-75
2023/09/08 06:03:28;;;;;;;20.00;15.35;;;15.80;99.90;;;;;;5142866;27;20051;-75
2023/09/08 06:05:54;;;;;;;15.63;13.38;;;15.80;99.90;;;;;;5121299;27;20057;-75
2023/09/08 06:08:19;;;;;;;15.85;13.52;;;15.90;99.90;;;;;;5141183;27;20050;-76
2023/09/08 06:10:45;;;;;;;15.80;13.63;;;15.90;99.90;;;;;;5119203;27;20050;-75
2023/09/08 06:13:10;;;;;;;13.18;11.80;;;16.00;99.90;;;;;;5133755;27;20088;-76
2023/09/08 06:15:36;;;;;;;15.63;13.52;;;16.00;99.90;;;;;;5116865;27;20507;-76
2023/09/08 06:18:02;;;;;;;14.98;13.60;;;16.10;99.90;;;;;;5142905;27;20055;-76
2023/09/08 06:20:28;;;;;;;19.08;14.10;;;16.20;99.90;;;;;;5134128;27;20125;-75
2023/09/08 06:22:54;;;;;;;16.27;12.95;;;16.30;99.90;;;;;;5134422;27;20052;-76
2023/09/08 06:25:20;;;;;;;14.05;10.40;;;16.30;99.90;;;;;;5141557;27;20050;-76
2023/09/08 06:27:45;;;;;;;15.60;11.80;;;16.40;99.90;;;;;;5133035;27;20104;-76
2023/09/08 06:30:13;;;;;;;15.82;13.50;;;16.50;99.90;;;;;;5139052;27;20558;-76
2023/09/08 06:32:39;;;;;;;15.07;12.35;;;16.60;99.90;;;;;;5143309;27;20086;-77
2023/09/08 06:35:05;;;;;;;13.65;12.23;;;16.70;99.90;;;;;;5095236;27;20158;-76
2023/09/08 06:37:36;;;;;;;16.15;13.48;;;16.90;99.90;;;;;;5143496;27;20042;-76
2023/09/08 06:40:02;;;;;;;13.07;11.77;;;17.00;99.90;;;;;;5129530;27;20527;-76
2023/09/08 06:42:27;;;;;;;14.77;13.43;;;17.20;99.90;;;;;;5113087;27;20058;-72
2023/09/08 06:44:53;;;;;;;15.85;13.43;;;17.20;99.90;;;;;;5119300;27;20062;-72
2023/09/08 06:47:19;;;;;;;13.77;12.40;;;17.40;99.90;;;;;;5135174;27;20142;-72
2023/09/08 06:49:45;;;;;;;15.27;12.75;;;17.50;99.90;;;;;;5141995;27;20068;-73
2023/09/08 06:52:10;;;;;;;15.07;12.93;;;17.60;99.90;;;;;;5142609;27;20542;-75
2023/09/08 06:54:36;;;;;;;13.63;12.20;;;17.70;99.90;;;;;;5126908;27;20054;-76
2023/09/08 06:57:02;;;;;;;17.67;13.23;;;17.80;99.90;;;;;;5105714;27;20551;-76
2023/09/08 06:59:27;;;;;;;15.43;12.88;;;17.90;99.90;;;;;;5141711;27;20073;-76
2023/09/08 07:01:53;;;;;;;13.85;12.10;;;18.00;99.90;;;;;;5143175;27;20055;-76
2023/09/08 07:04:19;;;;;;;15.60;12.88;;;18.20;99.90;;;;;;5124974;27;20043;-76
2023/09/08 07:06:46;;;;;;;16.00;12.07;;;18.40;99.90;;;;;;5134234;27;20123;-76
2023/09/08 07:09:12;;;;;;;14.98;11.48;;;18.50;99.90;;;;;;5106778;27;20457;-75
2023/09/08 07:11:38;;;;;;;16.23;12.23;;;18.70;99.90;;;;;;5109128;27;20047;-76
2023/09/08 07:14:03;;;;;;;16.10;13.23;;;18.80;99.90;;;;;;5120384;27;20766;-76
2023/09/08 07:16:29;;;;;;;14.77;12.80;;;19.00;99.90;;;;;;5121106;27;20076;-78
2023/09/08 07:18:55;;;;;;;14.57;12.05;;;19.10;99.90;;;;;;5126604;27;20043;-76
2023/09/08 07:21:20;;;;;;;14.00;12.60;;;19.30;99.90;;;;;;5138562;27;20042;-76
2023/09/08 07:23:46;;;;;;;13.45;10.73;;;19.50;99.90;;;;;;5138127;27;20057;-76
2023/09/08 07:26:12;;;;;;;14.02;11.98;;;20.40;99.90;;;;;;5139796;27;20046;-77
2023/09/08 07:28:39;;;;;;;12.02;10.57;;;22.20;99.90;;;;;;5127665;27;20420;-77
2023/09/08 07:31:08;;;;;;;12.02;10.85;;;24.00;99.90;;;;;;5128905;27;20051;-77
2023/09/08 07:33:34;;;;;;;13.68;10.88;;;25.60;99.90;;;;;;5118709;27;20060;-77
2023/09/08 07:36:05;;;;;;;12.13;10.77;;;26.70;99.90;;;;;;5140134;27;20509;-77
2023/09/08 07:38:31;;;;;;;16.38;11.80;;;27.80;99.90;;;;;;5126247;27;20085;-77
2023/09/08 07:40:59;;;;;;;11.52;9.88;;;28.40;99.90;;;;;;5112696;27;20090;-76
2023/09/08 07:43:25;;;;;;;10.77;8.90;;;29.00;99.90;;;;;;5110229;27;20061;-77
2023/09/08 07:45:51;;;;;;;12.60;9.73;;;29.70;99.60;;;;;;5128319;27;20129;-77
2023/09/08 07:48:17;;;;;;;11.68;9.60;;;30.10;98.60;;;;;;5136453;27;20042;-77
2023/09/08 07:50:42;;;;;;;9.20;8.32;;;30.70;97.90;;;;;;5127450;27;20399;-78
2023/09/08 07:53:08;;;;;;;10.77;8.70;;;31.10;97.10;;;;;;5139158;27;20142;-78
2023/09/08 07:55:34;;;;;;;8.60;7.80;;;31.60;96.20;;;;;;5126004;27;20540;-77
2023/09/08 07:58:03;;;;;;;8.93;8.05;;;32.10;95.60;;;;;;5138334;27;20042;-78
2023/09/08 08:00:29;;;;;;;11.52;9.13;;;32.60;95.00;;;;;;5136901;27;20784;-78
2023/09/08 08:02:56;;;;;;;10.27;8.40;;;32.90;94.40;;;;;;5139166;27;20122;-78
2023/09/08 08:05:22;;;;;;;7.70;6.90;;;33.20;93.80;;;;;;5119535;27;20047;-78
2023/09/08 08:07:48;;;;;;;10.65;8.13;;;33.40;93.40;;;;;;5117821;28;20046;-78
2023/09/08 08:10:14;;;;;;;9.88;7.95;;;33.70;92.70;;;;;;5132506;27;20124;-78
2023/09/08 08:12:42;;;;;;;8.77;7.95;;;33.80;92.10;;;;;;5131766;27;20049;-77
2023/09/08 08:15:12;;;;;;;7.95;7.22;;;33.90;91.80;;;;;;5139415;27;20078;-77
2023/09/08 08:17:39;;;;;;;10.98;7.88;;;34.30;91.60;;;;;;5113637;27;20748;-77
2023/09/08 08:20:09;;;;;;;9.07;8.18;;;34.30;91.30;;;;;;5124834;27;20154;-77
2023/09/08 08:22:37;;;;;;;8.55;7.72;;;34.50;90.90;;;;;;5134239;27;20057;-78
2023/09/08 08:25:05;;;;;;;11.07;8.00;;;34.40;91.00;;;;;;5137942;27;20054;-77
2023/09/08 08:27:31;;;;;;;8.20;7.40;;;34.50;90.90;;;;;;5127037;27;20085;-78
2023/09/08 08:30:00;;;;;;;8.57;7.78;;;34.60;90.80;;;;;;5133680;27;20486;-77
2023/09/08 08:32:26;;;;;;;8.63;7.82;;;34.50;90.70;;;;;;5118703;27;20043;-78
2023/09/08 08:34:52;;;;;;;10.50;8.10;;;34.60;90.70;;;;;;5143161;27;20047;-76
2023/09/08 08:37:18;;;;;;;10.40;7.72;;;34.70;90.60;;;;;;5142448;27;20835;-76
2023/09/08 08:39:43;;;;;;;8.38;7.55;;;34.90;90.60;;;;;;5136720;27;20146;-78
2023/09/08 08:42:10;;;;;;;8.43;7.53;;;34.70;90.60;;;;;;5130712;27;20046;-77
2023/09/08 08:44:38;;;;;;;8.38;7.18;;;34.20;90.60;;;;;;5116245;27;20042;-78
2023/09/08 08:47:07;;;;;;;8.07;7.35;;;34.40;90.60;;;;;;5120220;27;20195;-78
2023/09/08 08:49:33;;;;;;;7.32;6.63;;;34.20;90.70;;;;;;5140944;27;20038;-78
2023/09/08 08:52:00;;;;;;;7.25;6.57;;;34.20;90.70;;;;;;5134391;27;20046;-78
2023/09/08 08:54:28;;;;;;;8.13;6.10;;;34.30;90.60;;;;;;5109660;27;20047;-78
2023/09/08 08:56:54;;;;;;;5.97;5.38;;;34.60;90.70;;;;;;5140213;27;20054;-78
2023/09/08 08:59:19;;;;;;;5.50;4.93;;;34.80;90.00;;;;;;5128288;27;20046;-78
2023/09/08 09:01:45;;;;;;;5.03;4.53;;;34.60;89.00;;;;;;5133924;27;20129;-78
2023/09/08 09:04:13;;;;;;;5.93;4.30;;;35.00;88.40;;;;;;5123287;27;20495;-78
2023/09/08 09:06:39;;;;;;;5.72;4.35;;;35.70;87.70;;;;;;5142927;27;20054;-79
2023/09/08 09:09:05;;;;;;;5.78;4.18;;;35.80;86.40;;;;;;5136381;27;20058;-78
2023/09/08 09:11:33;;;;;;;5.50;4.68;;;35.70;85.60;;;;;;5136229;27;20059;-77
2023/09/08 09:13:59;;;;;;;6.68;4.50;;;35.70;84.80;;;;;;5133586;27;20127;-78
2023/09/08 09:16:24;;;;;;;6.30;4.38;;;35.80;84.50;;;;;;5122981;27;20180;-79
2023/09/08 09:18:57;;;;;;;5.72;5.03;;;35.70;83.00;;;;;;5142795;27;20510;-78
2023/09/08 09:21:24;;;;;;;5.50;4.93;;;36.00;82.90;;;;;;5129880;27;20043;-78
2023/09/08 09:23:50;;;;;;;5.53;4.25;;;36.30;83.00;;;;;;5140171;27;20057;-78
2023/09/08 09:26:26;;;;;;;6.65;4.57;;;36.20;82.10;;;;;;5116363;27;20042;-78
2023/09/08 09:28:53;;;;;;;5.85;4.65;;;36.30;78.10;;;;;;5138705;27;20049;-78
2023/09/08 09:31:24;;;;;;;6.28;4.25;;;36.10;80.70;;;;;;5120063;27;20055;-79
2023/09/08 09:34:04;;;;;;;5.32;4.85;;;36.30;79.90;;;;;;5121016;27;20131;-79
2023/09/08 09:36:29;;;;;;;4.80;4.40;;;35.90;78.00;;;;;;5122935;27;20043;-79
2023/09/08 09:39:03;;;;;;;5.78;4.95;;;35.70;79.90;;;;;;5121837;27;20049;-77
2023/09/08 09:41:32;;;;;;;5.00;3.92;;;36.10;79.10;;;;;;5118069;27;20046;-76
2023/09/08 09:43:58;;;;;;;5.53;4.70;;;36.00;79.90;;;;;;5120148;27;20051;-76
2023/09/08 09:46:27;;;;;;;4.82;4.32;;;36.10;79.10;;;;;;5105732;27;20107;-77
2023/09/08 09:48:58;;;;;;;5.38;4.75;;;36.00;79.00;;;;;;5116041;27;20047;-76
2023/09/08 09:51:24;;;;;;;8.23;4.32;;;36.30;79.20;;;;;;5106804;27;20047;-76
2023/09/08 09:53:50;;;;;;;5.32;4.47;;;36.30;79.10;;;;;;5108734;27;20485;-77
2023/09/08 09:56:17;;;;;;;5.10;4.60;;;36.40;78.60;;;;;;5113654;27;20142;-77
2023/09/08 09:58:44;;;;;;;7.63;5.22;;;36.70;77.80;;;;;;5113424;27;20075;-77
2023/09/08 10:01:11;;;;;;;4.93;4.47;;;36.50;77.20;;;;;;5107299;27;20043;-77
2023/09/08 10:03:40;;;;;;;8.40;4.72;;;36.40;77.50;;;;;;5108813;27;20238;-76
2023/09/08 10:06:06;;;;;;;5.53;4.82;;;36.50;76.60;;;;;;5119916;27;20080;-77
2023/09/08 10:08:36;;;;;;;4.93;4.53;;;36.70;77.00;;;;;;5119977;27;20042;-77
2023/09/08 10:11:07;;;;;;;4.72;4.32;;;36.80;77.00;;;;;;5099584;27;20143;-77
2023/09/08 10:13:40;;;;;;;7.03;3.97;;;37.20;75.80;;;;;;5105667;27;20143;-77
2023/09/08 10:16:08;;;;;;;5.18;3.85;;;37.40;75.80;;;;;;5103547;27;20058;-77
2023/09/08 10:18:35;;;;;;;5.97;4.43;;;37.60;75.70;;;;;;5109600;27;20063;-77
2023/09/08 10:21:04;;;;;;;4.20;3.80;;;37.70;75.90;;;;;;5119652;27;20062;-77
2023/09/08 10:23:43;;;;;;;5.00;4.60;;;38.00;75.50;;;;;;5108665;27;20055;-76
2023/09/08 10:26:16;;;;;;;7.22;4.47;;;38.20;75.80;;;;;;5099634;27;20047;-76
2023/09/08 10:28:42;;;;;;;5.10;4.70;;;38.50;74.40;;;;;;5127947;27;21052;-78
2023/09/08 10:31:09;;;;;;;4.50;3.95;;;38.80;74.50;;;;;;5105777;27;20059;-81
2023/09/08 10:33:35;;;;;;;6.75;4.20;;;39.00;73.60;;;;;;5136391;27;20055;-78
2023/09/08 10:36:04;;;;;;;8.52;4.25;;;38.90;72.90;;;;;;5123341;27;20063;-79
2023/09/08 10:38:34;;;;;;;4.40;4.00;;;38.90;72.40;;;;;;5131830;27;20057;-79
2023/09/08 10:41:20;;;;;;;6.70;4.70;;;38.80;70.80;;;;;;5102040;27;20047;-78
2023/09/08 10:43:54;;;;;;;4.63;4.22;;;38.80;72.10;;;;;;5103287;27;20061;-79
2023/09/08 10:46:25;;;;;;;4.55;4.15;;;38.30;71.70;;;;;;5131972;27;20046;-79
2023/09/08 10:48:53;;;;;;;;;;;37.70;72.10;;;;;;5117010;27;20034;-78
2023/09/08 10:51:19;;;;;;;4.75;3.90;;;36.40;72.40;;;;;;5117299;27;20387;-78
2023/09/08 10:53:50;;;;;;;4.30;3.90;;;35.20;73.40;;;;;;5139667;27;20827;-78
2023/09/08 10:56:16;;;;;;;;;;;34.30;73.10;;;;;;5138158;27;20039;-78
2023/09/08 10:58:43;;;;;;;6.60;4.32;;;33.40;74.30;;;;;;5126470;27;20360;-79
2023/09/08 11:01:26;;;;;;;5.70;4.57;;;32.70;74.30;;;;;;5138858;27;20043;-79
2023/09/08 11:03:53;;;;;;;5.78;4.40;;;32.40;75.80;;;;;;5117124;27;20051;-78
2023/09/08 11:06:23;;;;;;;5.13;4.10;;;32.10;74.90;;;;;;5135072;27;20145;-79
2023/09/08 11:08:52;;;;;;;5.45;5.03;;;31.80;75.20;;;;;;5115834;27;20042;-78
2023/09/08 11:11:19;;;;;;;5.47;4.93;;;31.60;75.90;;;;;;5130458;27;20043;-79
2023/09/08 11:13:47;;;;;;;6.15;4.90;;;31.50;76.60;;;;;;5131221;27;20054;-78
2023/09/08 11:16:21;;;;;;;6.45;5.25;;;31.40;77.30;;;;;;5132980;27;20047;-78
2023/09/08 11:18:46;;;;;;;5.22;4.70;;;31.20;77.70;;;;;;5114358;27;20776;-78
2023/09/08 11:21:12;;;;;;;7.20;4.45;;;31.20;78.80;;;;;;5132232;27;20055;-78
2023/09/08 11:23:39;;;;;;;9.55;4.78;;;31.10;78.80;;;;;;5133065;27;20712;-77
2023/09/08 11:26:08;;;;;;;7.63;4.75;;;31.00;77.70;;;;;;5125705;27;20082;-77
2023/09/08 11:28:34;;;;;;;5.97;4.75;;;30.90;76.90;;;;;;5109366;27;20076;-76
2023/09/08 11:31:01;;;;;;;6.60;4.68;;;30.90;77.30;;;;;;5121642;27;20706;-77
2023/09/08 11:33:27;;;;;;;5.35;4.85;;;30.90;77.00;;;;;;5116246;27;20121;-76
2023/09/08 11:35:54;;;;;;;6.15;4.43;;;30.90;76.00;;;;;;5140022;27;20490;-77
2023/09/08 11:38:27;;;;;;;8.05;4.80;;;30.80;76.50;;;;;;5138036;27;20046;-76
2023/09/08 11:40:57;;;;;;;6.28;5.13;;;30.80;76.60;;;;;;5121263;27;20054;-77
2023/09/08 11:43:24;;;;;;;5.05;4.45;;;30.80;77.40;;;;;;5118490;27;20042;-76
2023/09/08 11:45:50;;;;;;;6.43;4.78;;;30.90;77.80;;;;;;5139975;27;20050;-77
2023/09/08 11:48:16;;;;;;;7.07;5.05;;;30.90;77.30;;;;;;5135749;27;20845;-77
2023/09/08 11:50:43;;;;;;;8.95;4.72;;;30.90;77.90;;;;;;5125004;27;20050;-76
2023/09/08 11:53:09;;;;;;;4.95;4.47;;;30.90;78.20;;;;;;5135866;27;20103;-77
2023/09/08 11:55:38;;;;;;;5.70;5.00;;;30.90;78.40;;;;;;5128102;27;20051;-76
2023/09/08 11:58:04;;;;;;;6.40;4.32;;;30.90;78.50;;;;;;5130896;27;20215;-77
2023/09/08 12:00:30;;;;;;;5.93;5.18;;;30.90;77.70;;;;;;5120032;27;20084;-77
2023/09/08 12:03:08;;;;;;;5.80;4.43;;;30.90;77.40;;;;;;5103298;28;20042;-77
2023/09/08 12:05:35;;;;;;;4.63;4.00;;;31.00;76.60;;;;;;5128510;27;20065;-76
2023/09/08 12:08:05;;;;;;;4.97;4.05;;;31.10;76.60;;;;;;5100412;27;20078;-77
2023/09/08 12:10:37;;;;;;;6.97;4.40;;;31.30;76.40;;;;;;5118013;27;20043;-77
2023/09/08 12:13:03;;;;;;;7.30;4.35;;;31.30;76.20;;;;;;5124503;27;20043;-77
2023/09/08 12:15:38;;;;;;;5.75;3.95;;;31.40;75.70;;;;;;5135895;27;20414;-77
2023/09/08 12:18:15;;;;;;;5.10;4.50;;;31.50;74.80;;;;;;5119450;27;20050;-76
2023/09/08 12:20:41;;;;;;;6.50;5.72;;;31.50;74.70;;;;;;5135573;27;20053;-77
2023/09/08 12:23:21;;;;;;;5.20;3.95;;;31.50;75.00;;;;;;5138769;27;20050;-77
2023/09/08 12:25:49;;;;;;;6.47;4.43;;;31.60;75.00;;;;;;5135717;27;20039;-77
2023/09/08 12:28:17;;;;;;;6.50;4.50;;;31.70;74.80;;;;;;5124012;27;20082;-77
2023/09/08 12:30:43;;;;;;;5.82;4.47;;;31.70;75.90;;;;;;5119582;27;20050;-77
2023/09/08 12:33:10;;;;;;;5.80;4.47;;;31.70;76.10;;;;;;5113485;27;20051;-78
2023/09/08 12:35:35;;;;;;;5.00;4.60;;;31.70;76.00;;;;;;5119634;27;20119;-76